Time;durP1;ratioP1;P1;durP2;ratioP2;P2;SDS_P1;SDS_P2;PMS_P1;PMS_P2;Temp;Humidity;BMP_temperature;BMP_pressure;BME280_temperature;BME280_humidity;BME280_pressure;Samples;Min_cycle;Max_cycle;Signal;HPM_P1;HPM_P2
2023/04/24 00:00:44;;;;;;;10.77;7.68;;;14.00;99.90;;;;;;4887424;29;20134;-75
2023/04/24 00:03:13;;;;;;;11.05;7.75;;;14.10;99.90;;;;;;4876955;29;20054;-74
2023/04/24 00:05:43;;;;;;;9.52;7.13;;;14.10;99.90;;;;;;4876366;29;20065;-73
2023/04/24 00:08:13;;;;;;;9.27;7.32;;;14.10;99.90;;;;;;4877582;29;20110;-80
2023/04/24 00:11:24;;;;;;;12.40;7.82;;;14.00;99.90;;;;;;4877853;29;20374;-76
2023/04/24 00:13:53;;;;;;;10.07;7.03;;;14.00;99.90;;;;;;4891157;29;20063;-74
2023/04/24 00:16:42;;;;;;;11.85;7.80;;;13.90;99.90;;;;;;4885595;29;20130;-77
2023/04/24 00:19:14;;;;;;;11.07;7.45;;;14.00;99.90;;;;;;4893977;29;20046;-77
2023/04/24 00:22:20;;;;;;;8.38;6.47;;;13.90;99.90;;;;;;4854144;29;20133;-77
2023/04/24 00:25:05;;;;;;;9.77;6.93;;;13.90;99.90;;;;;;4853283;29;20050;-78
2023/04/24 00:30:41;;;;;;;9.88;7.50;;;13.90;99.90;;;;;;4873118;29;20060;-74
2023/04/24 00:33:08;;;;;;;10.98;7.55;;;14.00;99.90;;;;;;4861114;29;20383;-75
2023/04/24 00:35:40;;;;;;;9.43;7.70;;;13.90;99.90;;;;;;4885041;29;20080;-76
2023/04/24 00:38:17;;;;;;;9.88;6.90;;;14.00;99.90;;;;;;4873722;29;20057;-76
2023/04/24 00:40:59;;;;;;;11.90;7.65;;;13.80;99.90;;;;;;4878299;29;20064;-76
2023/04/24 00:43:29;;;;;;;11.15;7.90;;;13.80;99.90;;;;;;4881948;29;20113;-74
2023/04/24 00:46:10;;;;;;;10.38;7.90;;;13.90;99.90;;;;;;4878914;29;20050;-74
2023/04/24 00:48:42;;;;;;;10.60;7.22;;;13.90;99.90;;;;;;4884351;29;20142;-73
2023/04/24 00:51:24;;;;;;;11.13;7.45;;;13.80;99.90;;;;;;4899917;23;20049;-75
2023/04/24 00:53:51;;;;;;;13.88;7.90;;;13.80;99.90;;;;;;4893002;29;20041;-74
2023/04/24 00:56:19;;;;;;;10.32;7.65;;;13.70;99.90;;;;;;4894049;29;20072;-75
2023/04/24 00:58:47;;;;;;;10.35;8.18;;;13.60;99.90;;;;;;4894104;29;20125;-75
2023/04/24 01:01:16;;;;;;;9.55;7.47;;;13.40;99.90;;;;;;4880234;29;20076;-77
2023/04/24 01:03:59;;;;;;;10.88;7.85;;;13.30;99.90;;;;;;4878532;29;20089;-75
2023/04/24 01:06:31;;;;;;;9.82;7.38;;;13.40;99.90;;;;;;4888345;29;20060;-78
2023/04/24 01:09:16;;;;;;;15.07;8.32;;;13.50;99.90;;;;;;4876525;29;20045;-79
2023/04/24 01:12:01;;;;;;;13.02;8.18;;;13.80;99.90;;;;;;4892724;23;20056;-78
2023/04/24 01:14:45;;;;;;;10.98;6.80;;;13.70;99.90;;;;;;4895828;29;20045;-78
2023/04/24 01:17:27;;;;;;;12.18;7.38;;;13.80;99.90;;;;;;4880821;29;20053;-76
2023/04/24 01:19:56;;;;;;;11.25;7.68;;;13.80;99.90;;;;;;4888247;29;20041;-77
2023/04/24 01:22:35;;;;;;;9.55;7.88;;;13.80;99.90;;;;;;4892199;29;20060;-77
2023/04/24 01:25:17;;;;;;;10.25;7.57;;;13.60;99.90;;;;;;4881494;29;20069;-74
2023/04/24 01:27:56;;;;;;;11.35;7.70;;;13.40;99.90;;;;;;4883866;29;20060;-76
2023/04/24 01:30:38;;;;;;;12.35;7.80;;;13.40;99.90;;;;;;4868047;29;20076;-76
2023/04/24 01:33:11;;;;;;;12.15;7.63;;;13.10;99.90;;;;;;4899792;29;20049;-77
2023/04/24 01:35:56;;;;;;;10.05;7.65;;;13.40;99.90;;;;;;4867423;29;20060;-75
2023/04/24 01:38:40;;;;;;;9.93;7.90;;;13.30;99.90;;;;;;4872547;29;20049;-79
2023/04/24 01:41:27;;;;;;;10.57;8.13;;;13.20;99.90;;;;;;4877424;29;20141;-76
2023/04/24 01:44:56;;;;;;;12.57;7.72;;;13.00;99.90;;;;;;4859454;29;20049;-72
2023/04/24 01:47:40;;;;;;;11.55;8.07;;;13.10;99.90;;;;;;4892626;29;20092;-75
2023/04/24 01:50:09;;;;;;;12.55;8.70;;;13.10;99.90;;;;;;4896647;29;20068;-75
2023/04/24 01:52:57;;;;;;;11.95;8.50;;;13.00;99.90;;;;;;4881078;29;20057;-77
2023/04/24 01:55:27;;;;;;;10.73;8.30;;;13.20;99.90;;;;;;4890878;29;20068;-73
2023/04/24 01:58:22;;;;;;;11.98;8.88;;;13.20;99.90;;;;;;4886104;29;20462;-75
2023/04/24 02:01:03;;;;;;;11.75;8.85;;;13.20;99.90;;;;;;4869896;29;20057;-73
2023/04/24 02:03:47;;;;;;;11.60;8.50;;;13.10;99.90;;;;;;4893378;29;20068;-74
2023/04/24 02:06:31;;;;;;;10.40;8.30;;;13.10;99.90;;;;;;4882889;29;20132;-74
2023/04/24 02:09:10;;;;;;;10.35;8.07;;;13.10;99.90;;;;;;4878226;29;20312;-73
2023/04/24 02:12:25;;;;;;;10.77;8.20;;;13.00;99.90;;;;;;4894495;29;20060;-84
2023/04/24 02:15:37;;;;;;;14.75;9.65;;;12.70;99.90;;;;;;4900238;29;20033;-73
2023/04/24 02:18:04;;;;;;;13.48;8.98;;;12.10;99.90;;;;;;4893875;29;20048;-74
2023/04/24 02:23:32;;;;;;;13.25;9.20;;;12.90;99.90;;;;;;4898087;29;20077;-73
2023/04/24 02:26:32;;;;;;;13.32;9.52;;;12.10;99.90;;;;;;4910410;29;20053;-74
2023/04/24 02:29:11;;;;;;;13.70;9.32;;;11.80;99.90;;;;;;4927978;29;20129;-75
2023/04/24 02:32:18;;;;;;;14.90;10.20;;;11.30;99.90;;;;;;4896493;29;20505;-72
2023/04/24 02:34:59;;;;;;;14.60;9.52;;;11.50;99.90;;;;;;4890167;29;20053;-73
2023/04/24 02:37:42;;;;;;;16.55;9.80;;;12.20;99.90;;;;;;4899019;29;20057;-73
2023/04/24 02:40:10;;;;;;;12.40;9.57;;;12.50;99.90;;;;;;4902312;29;20147;-72
2023/04/24 02:42:37;;;;;;;12.50;9.70;;;12.70;99.90;;;;;;4891058;29;20053;-74
2023/04/24 02:45:07;;;;;;;14.93;9.57;;;12.80;99.90;;;;;;4903340;29;20084;-75
2023/04/24 02:47:42;;;;;;;12.68;9.02;;;12.60;99.90;;;;;;4901312;29;20584;-74
2023/04/24 02:50:11;;;;;;;12.55;9.45;;;12.50;99.90;;;;;;4896823;29;20052;-73
2023/04/24 02:52:39;;;;;;;12.75;9.40;;;12.60;99.90;;;;;;4898085;29;20381;-73
2023/04/24 02:55:58;;;;;;;12.68;8.77;;;12.60;99.90;;;;;;4901332;29;20437;-72
2023/04/24 02:58:26;;;;;;;12.98;9.07;;;12.70;99.90;;;;;;4899280;29;20052;-71
2023/04/24 03:00:55;;;;;;;11.02;8.68;;;12.60;99.90;;;;;;4898577;29;20054;-73
2023/04/24 03:03:50;;;;;;;11.57;9.35;;;12.40;99.90;;;;;;4912646;29;20055;-72
2023/04/24 03:06:35;;;;;;;12.18;9.85;;;11.70;99.90;;;;;;4899053;29;20504;-72
2023/04/24 03:09:32;;;;;;;12.30;9.82;;;11.30;99.90;;;;;;4914840;29;20151;-73
2023/04/24 03:12:10;;;;;;;11.23;8.45;;;11.00;99.90;;;;;;4888733;29;20120;-73
2023/04/24 03:14:40;;;;;;;15.98;9.77;;;11.00;99.90;;;;;;4897435;29;20116;-72
2023/04/24 03:17:07;;;;;;;16.67;10.05;;;10.90;99.90;;;;;;4871815;29;20048;-73
2023/04/24 03:19:34;;;;;;;12.90;9.90;;;11.70;99.90;;;;;;4883813;29;20061;-73
2023/04/24 03:22:03;;;;;;;12.80;9.82;;;12.10;99.90;;;;;;4900150;29;20053;-73
2023/04/24 03:24:30;;;;;;;13.23;9.48;;;12.10;99.90;;;;;;4904220;29;20056;-74
2023/04/24 03:27:08;;;;;;;13.68;10.05;;;12.30;99.90;;;;;;4907085;29;20061;-74
2023/04/24 03:30:06;;;;;;;12.23;9.77;;;12.40;99.90;;;;;;4885749;29;20464;-74
2023/04/24 03:32:33;;;;;;;16.77;9.38;;;12.20;99.90;;;;;;4892385;29;20539;-73
2023/04/24 03:35:01;;;;;;;11.52;9.57;;;12.40;99.90;;;;;;4890216;29;20061;-75
2023/04/24 03:37:30;;;;;;;15.20;9.93;;;12.30;99.90;;;;;;4903560;29;20055;-74
2023/04/24 03:39:57;;;;;;;14.32;9.23;;;12.30;99.90;;;;;;4897690;29;20064;-74
2023/04/24 03:42:27;;;;;;;14.10;9.55;;;12.40;99.90;;;;;;4904895;29;20060;-71
2023/04/24 03:45:06;;;;;;;13.25;9.27;;;12.20;99.90;;;;;;4909341;29;20059;-72
2023/04/24 03:47:34;;;;;;;12.02;9.32;;;11.50;99.90;;;;;;4894687;29;20088;-72
2023/04/24 03:50:24;;;;;;;16.27;10.30;;;10.90;99.90;;;;;;4890916;29;20056;-72
2023/04/24 03:53:06;;;;;;;12.57;10.23;;;10.70;99.90;;;;;;4889470;29;20060;-72
2023/04/24 03:55:34;;;;;;;14.27;10.25;;;10.70;99.90;;;;;;4894761;29;20067;-72
2023/04/24 03:58:17;;;;;;;16.48;9.48;;;11.30;99.90;;;;;;4883923;29;20060;-72
2023/04/24 04:01:08;;;;;;;13.55;10.45;;;11.80;99.90;;;;;;4904389;29;20064;-72
2023/04/24 04:03:46;;;;;;;12.23;9.63;;;12.00;99.90;;;;;;4897108;29;20052;-73
2023/04/24 04:06:14;;;;;;;11.95;9.90;;;12.10;99.90;;;;;;4901728;29;20080;-73
2023/04/24 04:08:41;;;;;;;12.27;9.00;;;12.10;99.90;;;;;;4909721;29;20135;-73
2023/04/24 04:11:09;;;;;;;12.13;9.07;;;12.30;99.90;;;;;;4908986;29;20105;-73
2023/04/24 04:13:36;;;;;;;16.35;9.32;;;12.20;99.90;;;;;;4914809;29;20063;-74
2023/04/24 04:16:04;;;;;;;15.20;10.02;;;12.20;99.90;;;;;;4914728;29;20131;-73
2023/04/24 04:19:27;;;;;;;13.63;9.60;;;12.30;99.90;;;;;;4916573;29;20040;-72
2023/04/24 04:21:56;;;;;;;17.52;11.85;;;12.30;99.90;;;;;;4903797;29;20053;-74
2023/04/24 04:24:23;;;;;;;16.95;11.38;;;12.10;99.90;;;;;;4909395;29;20051;-74
2023/04/24 04:26:51;;;;;;;18.98;11.95;;;12.40;99.90;;;;;;4911623;29;20052;-73
2023/04/24 04:29:36;;;;;;;15.55;10.95;;;12.50;99.90;;;;;;4890711;29;20116;-72
2023/04/24 04:32:13;;;;;;;15.32;10.57;;;12.40;99.90;;;;;;4910230;29;20036;-73
2023/04/24 04:34:40;;;;;;;16.08;10.60;;;12.10;99.90;;;;;;4900912;29;20052;-72
2023/04/24 04:37:10;;;;;;;11.40;9.40;;;12.50;99.90;;;;;;4900696;29;20056;-73
2023/04/24 04:39:38;;;;;;;12.23;9.40;;;12.10;99.90;;;;;;4905403;29;20137;-72
2023/04/24 04:42:06;;;;;;;15.82;9.75;;;12.30;99.90;;;;;;4909289;29;20068;-74
2023/04/24 04:44:35;;;;;;;13.35;9.55;;;12.60;99.90;;;;;;4912578;29;20049;-73
2023/04/24 04:47:05;;;;;;;12.35;8.82;;;12.50;99.90;;;;;;4902326;29;20057;-76
2023/04/24 04:49:33;;;;;;;13.43;9.32;;;12.60;99.90;;;;;;4911109;29;20049;-79
2023/04/24 04:56:30;;;;;;;15.90;12.40;;;12.70;99.90;;;;;;5232862;23;20052;-81
2023/04/24 04:59:19;;;;;;;31.30;20.85;;;12.40;99.90;;;;;;4893270;29;20049;-78
2023/04/24 05:08:11;;;;;;;19.25;12.27;;;12.70;99.90;;;;;;3962532;27;20064;-75
2023/04/24 05:11:03;;;;;;;18.85;12.80;;;12.60;99.90;;;;;;4888145;29;20096;-78
2023/04/24 05:13:53;;;;;;;94.00;54.28;;;12.80;99.90;;;;;;4918933;29;20123;-77
2023/04/24 05:16:37;;;;;;;159.07;103.03;;;12.80;99.90;;;;;;4899855;29;20060;-74
2023/04/24 05:19:05;;;;;;;33.13;25.23;;;12.90;99.90;;;;;;4909357;29;20123;-73
2023/04/24 05:21:34;;;;;;;17.73;13.77;;;12.80;99.90;;;;;;4912448;29;20077;-73
2023/04/24 05:24:02;;;;;;;16.80;11.98;;;12.90;99.90;;;;;;4910577;29;20076;-75
2023/04/24 05:26:29;;;;;;;17.48;10.77;;;12.90;99.90;;;;;;4913853;29;20100;-78
2023/04/24 05:29:11;;;;;;;23.58;13.63;;;13.00;99.90;;;;;;4909434;29;20052;-73
2023/04/24 05:37:58;;;;;;;33.47;22.17;;;13.30;99.90;;;;;;4898992;29;20125;-75
2023/04/24 05:40:40;;;;;;;45.08;29.02;;;13.30;99.90;;;;;;4850738;29;20045;-75
2023/04/24 05:43:51;;;;;;;24.08;15.85;;;13.50;99.90;;;;;;4875230;29;20059;-76
2023/04/24 05:46:34;;;;;;;12.82;9.57;;;13.60;99.90;;;;;;4884535;29;20081;-76
2023/04/24 05:49:18;;;;;;;23.55;10.50;;;13.50;99.90;;;;;;4881375;29;20045;-78
2023/04/24 05:52:25;;;;;;;16.52;9.80;;;13.40;99.90;;;;;;4877251;29;20049;-78
2023/04/24 05:55:18;;;;;;;15.20;9.50;;;13.60;99.90;;;;;;4893637;29;20081;-78
2023/04/24 05:58:25;;;;;;;17.80;10.00;;;13.50;99.90;;;;;;4872664;29;20047;-75
2023/04/24 06:00:52;;;;;;;15.50;9.40;;;13.60;99.90;;;;;;4890803;29;20049;-74
2023/04/24 06:03:20;;;;;;;13.95;10.15;;;13.70;99.90;;;;;;4889009;29;20055;-76
2023/04/24 06:09:07;;;;;;;16.60;10.27;;;13.00;99.90;;;;;;4898755;29;20056;-77
2023/04/24 06:15:16;;;;;;;19.60;12.05;;;13.60;99.90;;;;;;4898051;29;20029;-76
2023/04/24 06:17:49;;;;;;;117.07;65.65;;;14.10;99.90;;;;;;4883247;29;20081;-76
2023/04/24 06:24:33;;;;;;;23.48;14.52;;;14.20;99.90;;;;;;4889345;29;20037;-77
2023/04/24 06:27:10;;;;;;;16.10;11.48;;;14.10;99.90;;;;;;4845722;29;20100;-76
2023/04/24 06:29:39;;;;;;;17.73;9.75;;;14.10;99.90;;;;;;4890211;29;20046;-75
2023/04/24 06:32:10;;;;;;;16.27;10.05;;;14.20;99.90;;;;;;4892600;29;20433;-75
2023/04/24 06:34:55;;;;;;;12.63;9.45;;;14.30;99.90;;;;;;4860248;29;20390;-75
2023/04/24 06:40:49;;;;;;;17.08;9.18;;;14.60;99.90;;;;;;4891395;29;20063;-75
2023/04/24 06:43:16;;;;;;;10.88;7.55;;;14.70;99.90;;;;;;4880521;29;20128;-75
2023/04/24 06:45:43;;;;;;;9.52;7.50;;;14.60;99.90;;;;;;4890757;29;20079;-77
2023/04/24 06:48:40;;;;;;;10.75;7.93;;;14.60;99.90;;;;;;4897956;29;20064;-75
2023/04/24 06:51:08;;;;;;;11.35;8.50;;;14.70;99.90;;;;;;4892636;29;20053;-75
2023/04/24 06:53:55;;;;;;;12.15;8.18;;;14.70;99.90;;;;;;4893931;29;20172;-79
2023/04/24 06:56:38;;;;;;;10.77;7.88;;;14.70;99.90;;;;;;4872379;29;20069;-75
2023/04/24 06:59:05;;;;;;;12.98;8.10;;;14.60;99.90;;;;;;4895751;29;20048;-76
2023/04/24 07:01:51;;;;;;;10.52;7.25;;;14.60;99.90;;;;;;4873091;29;20037;-80
2023/04/24 07:04:38;;;;;;;9.25;7.55;;;14.80;99.90;;;;;;4890650;29;20052;-77
2023/04/24 07:12:54;;;;;;;11.43;7.50;;;14.70;99.90;;;;;;3299715;23;20056;-78
2023/04/24 07:15:53;;;;;;;14.90;7.80;;;14.70;99.90;;;;;;4867925;29;20057;-74
2023/04/24 07:18:21;;;;;;;10.63;7.35;;;14.90;99.90;;;;;;4887806;29;20056;-75
2023/04/24 07:20:52;;;;;;;11.32;7.28;;;14.90;99.90;;;;;;4899262;29;20056;-76
2023/04/24 07:23:24;;;;;;;11.25;7.78;;;15.00;99.90;;;;;;4896906;29;20417;-78
2023/04/24 07:26:21;;;;;;;11.82;8.05;;;14.90;99.90;;;;;;4898510;29;20059;-76
2023/04/24 07:29:06;;;;;;;12.18;7.60;;;14.90;99.90;;;;;;4885750;29;20061;-78
2023/04/24 07:31:36;;;;;;;12.25;7.80;;;15.20;99.90;;;;;;4884224;29;20497;-75
2023/04/24 07:34:04;;;;;;;27.02;9.07;;;15.20;99.90;;;;;;4897322;29;20666;-76
2023/04/24 07:36:33;;;;;;;11.75;7.95;;;15.20;99.90;;;;;;4898822;29;20060;-76
2023/04/24 07:39:03;;;;;;;13.05;8.23;;;15.40;99.90;;;;;;4874500;29;20077;-76
2023/04/24 07:41:35;;;;;;;14.88;7.63;;;15.30;99.90;;;;;;4893905;29;20073;-78
2023/04/24 07:44:04;;;;;;;11.18;7.70;;;15.40;99.90;;;;;;4902116;29;20053;-76
2023/04/24 07:47:22;;;;;;;13.40;8.15;;;15.40;99.90;;;;;;4893303;29;20037;-79
2023/04/24 07:50:46;;;;;;;10.32;7.63;;;15.50;99.90;;;;;;4909938;29;20087;-77
2023/04/24 07:53:32;;;;;;;13.23;8.90;;;15.70;99.90;;;;;;4890032;29;20052;-78
2023/04/24 07:55:59;;;;;;;11.95;7.72;;;15.90;99.90;;;;;;4892302;29;20072;-76
2023/04/24 07:58:27;;;;;;;10.48;7.60;;;15.60;99.90;;;;;;4878475;29;20104;-76
2023/04/24 08:01:01;;;;;;;12.10;8.10;;;15.70;99.90;;;;;;4883509;29;20040;-77
2023/04/24 08:03:52;;;;;;;12.20;8.05;;;15.80;99.90;;;;;;4909489;29;20060;-76
2023/04/24 08:06:52;;;;;;;10.70;7.35;;;15.80;99.90;;;;;;4900108;29;20060;-77
2023/04/24 08:13:15;;;;;;;10.38;7.07;;;16.10;99.90;;;;;;4916772;29;20056;-79
2023/04/24 08:16:00;;;;;;;12.98;7.80;;;16.30;99.90;;;;;;4905497;29;20113;-78
2023/04/24 08:18:41;;;;;;;9.40;7.00;;;16.50;99.90;;;;;;4887180;29;20053;-78
2023/04/24 10:01:35;;;;;;;8.48;5.15;;;20.80;90.80;;;;;;4812356;23;20048;-78
2023/04/24 10:04:38;;;;;;;12.85;6.35;;;20.50;88.00;;;;;;4908242;29;20033;-81
2023/04/24 10:11:10;;;;;;;10.52;4.93;;;20.70;86.70;;;;;;5620995;23;19916;-77
2023/04/24 10:42:02;;;;;;;7.43;5.40;;;20.30;85.00;;;;;;5821931;23;20070;-79
2023/04/24 10:48:20;;;;;;;8.00;5.40;;;20.50;86.00;;;;;;4294174;24;20053;-79
2023/04/24 10:52:10;;;;;;;6.47;4.68;;;20.20;85.40;;;;;;4839023;29;20025;-80
2023/04/24 11:03:30;;;;;;;;;;;;;;;;;;;;;
2023/04/24 11:07:36;;;;;;;9.82;4.43;;;20.30;83.80;;;;;;4807091;29;20042;-77
2023/04/24 11:11:11;;;;;;;6.65;4.43;;;20.20;79.30;;;;;;4807289;29;20043;-78
2023/04/24 11:15:21;;;;;;;;;;;;;;;;;;;;;
2023/04/24 11:19:41;;;;;;;8.15;5.00;;;20.10;82.20;;;;;;4721333;30;20122;-76
2023/04/24 11:23:25;;;;;;;8.50;5.30;;;20.40;83.50;;;;;;4717545;30;20052;-78
2023/04/24 11:31:18;;;;;;;8.43;5.10;;;20.10;88.10;;;;;;4698926;30;20047;-79
2023/04/24 11:34:21;;;;;;;8.20;4.93;;;20.20;88.20;;;;;;4651500;30;20039;-77
2023/04/24 11:37:51;;;;;;;11.32;5.18;;;20.20;87.90;;;;;;4664895;30;20077;-76
2023/04/24 12:16:52;;;;;;;9.50;6.25;;;21.00;87.30;;;;;;2388644;23;20023;-75
2023/04/24 12:50:20;;;;;;;7.25;4.97;;;20.90;86.60;;;;;;2597308;27;20049;-73
2023/04/24 12:56:21;;;;;;;10.10;4.55;;;21.30;83.30;;;;;;4858074;29;20048;-78
2023/04/24 13:04:17;;;;;;;6.20;4.50;;;21.60;83.60;;;;;;4861260;29;20038;-75
2023/04/24 13:08:27;;;;;;;8.13;5.20;;;21.70;83.40;;;;;;4848897;29;20056;-76
2023/04/24 13:17:44;;;;;;;8.23;4.72;;;21.40;84.10;;;;;;4169644;27;20046;-78
2023/04/24 13:21:13;;;;;;;7.00;4.72;;;21.10;82.20;;;;;;5131209;23;20021;-77
2023/04/24 13:24:27;;;;;;;;;;;;;;;;;;;;;
2023/04/24 13:27:31;;;;;;;10.00;5.15;;;20.80;83.00;;;;;;4892376;29;20040;-77
2023/04/24 13:35:44;;;;;;;6.80;4.53;;;20.50;84.40;;;;;;4856730;29;20049;-79
2023/04/24 13:38:51;;;;;;;6.60;4.57;;;20.40;85.60;;;;;;4830243;29;20058;-79
2023/04/24 13:47:00;;;;;;;9.60;5.43;;;20.10;86.50;;;;;;4829007;29;20062;-80
2023/04/24 14:10:00;;;;;;;9.27;5.75;;;18.80;93.20;;;;;;4884152;23;20049;-77
2023/04/24 14:12:28;;;;;;;7.50;4.53;;;17.80;96.90;;;;;;4870029;29;20038;-77
2023/04/24 14:15:58;;;;;;;6.72;3.40;;;17.20;99.90;;;;;;4866253;29;20054;-76
2023/04/24 14:20:04;;;;;;;5.65;3.40;;;17.00;99.90;;;;;;4858840;29;20123;-77
2023/04/24 14:40:02;;;;;;;6.32;4.10;;;17.70;99.90;;;;;;5138422;23;20096;-77
2023/04/24 14:43:05;;;;;;;8.93;5.30;;;17.50;99.90;;;;;;4872120;29;20033;-76
2023/04/24 14:46:00;;;;;;;9.05;4.88;;;17.50;99.90;;;;;;4869715;29;20061;-78
2023/04/24 14:53:02;;;;;;;8.48;4.35;;;17.70;99.90;;;;;;4881268;29;20049;-78
2023/04/24 14:56:35;;;;;;;6.68;4.10;;;17.60;99.90;;;;;;4886161;29;20057;-75
2023/04/24 15:07:46;;;;;;;6.68;4.22;;;16.60;99.90;;;;;;4845765;29;20026;-79
2023/04/24 15:10:55;;;;;;;7.25;4.55;;;16.90;99.90;;;;;;4814248;29;20050;-79
2023/04/24 15:23:35;;;;;;;6.93;4.80;;;17.20;99.90;;;;;;4933419;23;20045;-75
2023/04/24 15:26:42;;;;;;;8.07;5.07;;;17.10;99.90;;;;;;4886237;29;20055;-74
2023/04/24 15:30:10;;;;;;;7.30;4.28;;;17.30;99.90;;;;;;4883048;29;20064;-78
2023/04/24 15:44:42;;;;;;;9.45;6.18;;;17.50;99.90;;;;;;5499512;23;20041;-78
2023/04/24 15:51:23;;;;;;;10.80;6.65;;;17.50;99.90;;;;;;4872655;29;20050;-77
2023/04/24 16:01:55;;;;;;;8.35;5.70;;;17.40;99.90;;;;;;4911372;23;20436;-76
2023/04/24 16:05:37;;;;;;;26.35;19.52;;;17.40;99.90;;;;;;4895184;29;20090;-77
2023/04/24 16:09:25;;;;;;;37.00;26.92;;;17.40;99.90;;;;;;4912123;29;20035;-83
2023/04/24 16:12:10;;;;;;;61.85;45.10;;;17.60;99.90;;;;;;4925645;23;20049;-76
2023/04/24 16:25:01;;;;;;;10.07;7.00;;;17.20;99.90;;;;;;1272547;27;20049;-74
2023/04/24 16:28:24;;;;;;;10.13;6.88;;;17.10;99.90;;;;;;4869652;29;20037;-75
2023/04/24 16:32:28;;;;;;;11.55;6.43;;;16.90;99.90;;;;;;4862406;29;20072;-76
2023/04/24 16:36:52;;;;;;;10.25;6.65;;;16.80;99.90;;;;;;4791662;30;20046;-77
2023/04/24 16:43:48;;;;;;;11.43;8.40;;;16.80;99.90;;;;;;5231683;23;20034;-77
2023/04/24 16:47:31;;;;;;;;;;;16.90;99.90;;;;;;4868713;29;20057;-77
2023/04/24 16:51:09;;;;;;;9.90;7.13;;;16.90;99.90;;;;;;4850124;29;20009;-74
2023/04/24 16:58:00;;;;;;;9.18;5.90;;;16.40;99.90;;;;;;4858283;29;20406;-74
2023/04/24 17:01:23;;;;;;;8.98;5.95;;;16.30;99.90;;;;;;4847760;29;20062;-75
2023/04/24 17:03:51;;;;;;;7.47;4.93;;;16.10;99.90;;;;;;4860554;29;20469;-76
2023/04/24 17:09:51;;;;;;;8.38;5.38;;;16.00;99.90;;;;;;4847361;29;20046;-77
2023/04/24 17:12:21;;;;;;;9.68;5.50;;;15.90;99.90;;;;;;4837449;29;20041;-75
2023/04/24 17:14:50;;;;;;;8.57;5.28;;;15.80;99.90;;;;;;4864136;29;20037;-76
2023/04/24 17:18:25;;;;;;;8.10;5.57;;;15.90;99.90;;;;;;4882613;29;20036;-73
2023/04/24 17:21:34;;;;;;;9.48;5.60;;;15.80;99.90;;;;;;4826621;29;20038;-74
2023/04/24 17:24:41;;;;;;;8.55;5.68;;;15.70;99.90;;;;;;4831662;29;20038;-75
2023/04/24 17:28:43;;;;;;;7.85;5.57;;;15.60;99.90;;;;;;4790073;30;20047;-73
2023/04/24 17:32:29;;;;;;;8.68;6.03;;;15.70;99.90;;;;;;4769884;30;20149;-75
2023/04/24 17:36:07;;;;;;;9.13;6.20;;;15.70;99.90;;;;;;4801617;30;20060;-76
2023/04/24 17:42:40;;;;;;;7.18;5.28;;;15.80;99.90;;;;;;4807045;29;20149;-78
2023/04/24 17:49:16;;;;;;;10.45;5.80;;;15.70;99.90;;;;;;4826550;29;20060;-73
2023/04/24 17:51:49;;;;;;;7.88;5.72;;;15.40;99.90;;;;;;4822690;29;20409;-75
2023/04/24 17:55:17;;;;;;;8.18;5.93;;;15.40;99.90;;;;;;4826763;29;20064;-73
2023/04/24 17:58:17;;;;;;;9.88;6.63;;;15.30;99.90;;;;;;4818292;29;20058;-73
2023/04/24 18:01:17;;;;;;;8.90;6.70;;;15.30;99.90;;;;;;4818863;29;20516;-76
2023/04/24 18:05:33;;;;;;;9.73;7.22;;;15.30;99.90;;;;;;4770145;30;20056;-74
2023/04/24 18:12:10;;;;;;;9.50;6.20;;;15.30;99.90;;;;;;4765346;30;20048;-75
2023/04/24 18:15:04;;;;;;;10.73;5.43;;;15.40;99.90;;;;;;4741174;30;20080;-75
2023/04/24 18:18:34;;;;;;;7.65;5.90;;;15.30;99.90;;;;;;4742539;30;20472;-74
2023/04/24 18:21:27;;;;;;;8.23;6.32;;;15.30;99.90;;;;;;4780397;30;20051;-73
2023/04/24 18:28:14;;;;;;;8.65;6.20;;;15.20;99.90;;;;;;4775753;29;20062;-74
2023/04/24 18:31:01;;;;;;;8.23;6.15;;;15.10;99.90;;;;;;4816616;29;20108;-76
2023/04/24 18:33:32;;;;;;;8.43;6.22;;;15.30;99.90;;;;;;4815164;29;20116;-78
2023/04/24 18:36:00;;;;;;;;;;;15.30;99.90;;;;;;4832097;29;20058;-79
2023/04/24 18:42:08;;;;;;;24.48;17.90;;;15.30;99.90;;;;;;4840567;29;20065;-75
2023/04/24 18:44:40;;;;;;;17.13;11.93;;;15.40;99.90;;;;;;4826928;29;20050;-77
2023/04/24 18:47:30;;;;;;;91.97;57.42;;;15.10;99.90;;;;;;4858481;29;20065;-80
2023/04/24 18:51:08;;;;;;;;;;;;;;;;;;;;;
2023/04/24 18:54:33;;;;;;;11.25;6.80;;;15.30;99.90;;;;;;4836017;29;20043;-77
2023/04/24 18:57:23;;;;;;;29.50;19.48;;;14.80;99.90;;;;;;4820525;29;20141;-75
2023/04/24 19:00:05;;;;;;;16.65;10.68;;;14.80;99.90;;;;;;4793708;29;20057;-76
2023/04/24 19:26:37;;;;;;;8.65;6.15;;;14.70;99.90;;;;;;4841122;29;20048;-77
2023/04/24 20:11:44;;;;;;;8.70;5.95;;;14.70;99.90;;;;;;5503196;23;20049;-75
2023/04/24 20:57:43;;;;;;;7.67;5.47;;;14.50;99.90;;;;;;5066788;23;20049;-77
2023/04/24 21:01:34;;;;;;;9.70;6.68;;;14.50;99.90;;;;;;4882727;29;20064;-76
2023/04/24 21:09:03;;;;;;;12.67;6.63;;;14.50;99.90;;;;;;4873979;29;20017;-78
2023/04/24 21:11:39;;;;;;;9.77;5.90;;;14.40;99.90;;;;;;4849780;29;20293;-78
2023/04/24 21:14:41;;;;;;;8.48;6.13;;;14.40;99.90;;;;;;4883094;29;20042;-79
2023/04/24 21:18:53;;;;;;;9.13;6.20;;;14.40;99.90;;;;;;4899148;29;20063;-75
2023/04/24 21:22:56;;;;;;;9.55;6.82;;;14.60;99.90;;;;;;4892461;29;20113;-75
2023/04/24 21:34:28;;;;;;;244.85;144.55;;;14.50;99.90;;;;;;5542915;23;20112;-76
2023/04/24 21:37:00;;;;;;;303.58;182.25;;;14.50;99.90;;;;;;4890918;29;20061;-77
2023/04/24 21:40:25;;;;;;;168.63;110.57;;;14.50;99.90;;;;;;4883650;29;20049;-80
2023/04/24 21:58:14;;;;;;;13.07;8.73;;;14.00;99.90;;;;;;4768737;30;20048;-76
2023/04/24 22:21:00;;;;;;;15.70;8.40;;;14.10;99.90;;;;;;4963443;23;20308;-79
2023/04/24 22:43:12;;;;;;;11.23;7.20;;;13.90;99.90;;;;;;4856955;29;20030;-76
2023/04/24 22:46:32;;;;;;;12.20;8.68;;;13.80;99.90;;;;;;4861091;29;20085;-77
2023/04/24 23:04:15;;;;;;;12.50;8.23;;;13.50;99.90;;;;;;4839412;29;20058;-77
2023/04/24 23:09:58;;;;;;;109.63;67.50;;;13.60;99.90;;;;;;3191282;27;20049;-76
2023/04/24 23:16:17;;;;;;;14.50;9.88;;;13.80;99.90;;;;;;5088147;23;20058;-75
2023/04/24 23:19:15;;;;;;;10.20;8.32;;;13.80;99.90;;;;;;4864451;29;20057;-77
2023/04/24 23:22:39;;;;;;;11.77;7.50;;;13.80;99.90;;;;;;4874749;29;20179;-74
2023/04/24 23:25:09;;;;;;;9.18;7.55;;;13.80;99.90;;;;;;4844990;29;20068;-75
2023/04/24 23:27:58;;;;;;;11.82;7.85;;;13.80;99.90;;;;;;4875836;29;20050;-73
2023/04/24 23:31:30;;;;;;;9.52;7.22;;;13.80;99.90;;;;;;4846521;29;20049;-74
2023/04/24 23:37:57;;;;;;;16.58;8.70;;;13.60;99.90;;;;;;4866536;29;20062;-78
2023/04/24 23:40:25;;;;;;;11.15;8.43;;;13.70;99.90;;;;;;4852082;29;20058;-74
2023/04/24 23:46:37;;;;;;;10.95;8.20;;;13.50;99.90;;;;;;4878858;29;20077;-77
2023/04/24 23:49:22;;;;;;;13.98;8.30;;;13.60;99.90;;;;;;4856082;29;20061;-75
2023/04/24 23:52:05;;;;;;;10.43;7.70;;;13.70;99.90;;;;;;4805882;29;20156;-74
2023/04/24 23:55:24;;;;;;;15.93;8.90;;;13.90;99.90;;;;;;4862423;29;20047;-75
2023/04/24 23:57:53;;;;;;;15.13;8.98;;;13.90;99.90;;;;;;4872558;29;20061;-76
